createdAt,value
2019-04-01T00:02:22.219Z,34.15
2019-04-01T00:04:54.173Z,31.20
2019-04-01T00:07:27.804Z,26.17
2019-04-01T00:10:02.067Z,27.58
2019-04-01T00:12:36.372Z,27.07
2019-04-01T00:15:09.959Z,28.15
2019-04-01T00:17:41.284Z,28.23
2019-04-01T00:20:13.023Z,31.02
2019-04-01T00:22:47.977Z,32.15
2019-04-01T00:25:22.511Z,34.20
2019-04-01T00:27:54.083Z,32.65
2019-04-01T00:30:26.064Z,33.78
2019-04-01T00:33:07.061Z,36.50
2019-04-01T00:35:38.210Z,35.08
2019-04-01T00:38:08.486Z,33.18
2019-04-01T00:40:40.437Z,31.75
2019-04-01T00:43:22.856Z,31.12
2019-04-01T00:45:54.790Z,30.65
2019-04-01T00:48:24.941Z,28.85
2019-04-01T00:50:55.055Z,31.42
2019-04-01T00:53:26.600Z,32.25
2019-04-01T00:55:56.976Z,30.95
2019-04-01T00:58:30.359Z,29.12
2019-04-01T01:40:57.166Z,30.77
2019-04-01T01:43:27.914Z,34.03
2019-04-01T01:45:58.017Z,34.27
2019-04-01T01:48:29.785Z,38.60
2019-04-01T01:50:59.916Z,37.45
2019-04-01T01:53:31.783Z,40.83
2019-04-01T01:56:01.892Z,37.15
2019-04-01T01:58:31.945Z,37.13
2019-04-01T02:01:03.276Z,38.33
2019-04-01T02:03:33.435Z,40.00
2019-04-01T02:06:04.973Z,37.67
2019-04-01T02:08:35.108Z,36.80
2019-04-01T02:11:05.265Z,39.60
2019-04-01T02:13:35.447Z,39.08
2019-04-01T02:16:06.947Z,36.60
2019-04-01T02:18:38.300Z,39.30
2019-04-01T02:21:08.429Z,38.55
2019-04-01T02:23:39.398Z,39.33
2019-04-01T02:26:10.457Z,40.20
2019-04-01T02:28:43.032Z,39.18
2019-04-01T02:31:16.861Z,42.15
2019-04-01T02:33:47.088Z,41.33
2019-04-01T02:36:17.274Z,42.23
2019-04-01T02:38:51.615Z,41.15
2019-04-01T02:41:22.113Z,41.88
2019-04-01T02:43:55.629Z,42.50
2019-04-01T02:46:26.128Z,41.85
2019-04-01T02:48:56.448Z,42.57
2019-04-01T02:51:26.736Z,41.08
2019-04-01T02:53:56.870Z,42.63
2019-04-01T02:56:28.828Z,39.33
2019-04-01T02:58:59.377Z,41.53
2019-04-01T03:01:34.266Z,43.23
2019-04-01T03:04:06.912Z,45.33
2019-04-01T03:06:39.054Z,42.87
2019-04-01T03:09:09.248Z,43.48
2019-04-01T03:11:39.453Z,42.30
2019-04-01T03:14:09.580Z,41.80
2019-04-01T03:16:39.744Z,42.98
2019-04-01T03:19:09.843Z,43.20
2019-04-01T03:21:40.350Z,41.30
2019-04-01T03:24:11.232Z,42.55
2019-04-01T03:26:41.542Z,43.40
2019-04-01T03:29:12.640Z,42.80
2019-04-01T03:31:43.518Z,43.05
2019-04-01T03:34:17.529Z,41.90
2019-04-01T03:36:47.626Z,41.95
2019-04-01T03:39:18.213Z,41.20
2019-04-01T03:41:48.397Z,42.40
2019-04-01T03:44:20.648Z,41.02
2019-04-01T03:46:51.241Z,43.33
2019-04-01T03:49:24.728Z,43.65
2019-04-01T03:51:55.576Z,41.25
2019-04-01T03:54:37.062Z,41.05
2019-04-01T03:57:07.633Z,43.28
2019-04-01T03:59:37.801Z,45.07
2019-04-01T04:02:11.463Z,41.63
2019-04-01T04:04:42.793Z,43.63
2019-04-01T04:07:13.950Z,43.20
2019-04-01T04:09:44.090Z,42.85
2019-04-01T04:12:15.744Z,43.68
2019-04-01T04:14:50.783Z,41.20
2019-04-01T04:17:20.059Z,42.20
2019-04-01T04:19:52.488Z,41.92
2019-04-01T04:22:25.738Z,42.73
2019-04-01T04:24:56.140Z,41.15
2019-04-01T04:27:29.176Z,41.45
2019-04-01T04:30:00.515Z,42.27
2019-04-01T04:32:30.713Z,40.28
2019-04-01T04:35:01.177Z,41.40
2019-04-01T04:37:33.717Z,40.92
2019-04-01T04:40:08.960Z,40.47
2019-04-01T04:42:40.013Z,43.93
2019-04-01T04:45:11.822Z,45.33
2019-04-01T04:47:43.039Z,44.18
2019-04-01T04:50:16.250Z,43.45
2019-04-01T04:52:46.364Z,45.35
2019-04-01T04:55:16.516Z,41.40
2019-04-01T04:57:46.630Z,42.58
2019-04-01T05:00:22.559Z,43.75
2019-04-01T05:02:56.243Z,43.42
2019-04-01T05:05:27.100Z,43.65
2019-04-01T05:07:57.643Z,40.45
2019-04-01T05:10:27.899Z,40.20
2019-04-01T05:13:00.152Z,41.23
2019-04-01T05:15:30.988Z,36.68
2019-04-01T05:18:02.498Z,36.33
2019-04-01T05:20:33.054Z,31.70
2019-04-01T05:23:05.345Z,32.48
2019-04-01T05:25:38.186Z,34.35
2019-04-01T05:28:11.596Z,36.98
2019-04-01T05:30:43.550Z,35.88
2019-04-01T05:33:17.080Z,33.40
2019-04-01T05:35:48.465Z,36.63
2019-04-01T05:38:20.629Z,37.67
2019-04-01T05:40:50.815Z,37.38
2019-04-01T05:43:25.888Z,34.10
2019-04-01T05:45:56.375Z,41.83
2019-04-01T05:48:29.922Z,42.20
2019-04-01T05:51:03.283Z,42.90
2019-04-01T05:53:33.454Z,43.10
2019-04-01T05:56:04.616Z,44.25
2019-04-01T05:58:34.793Z,45.83
2019-04-01T06:01:19.147Z,44.98
2019-04-01T06:03:51.519Z,44.30
2019-04-01T06:06:23.499Z,45.43
2019-04-01T06:08:54.528Z,46.63
2019-04-01T06:11:25.753Z,46.00
2019-04-01T06:13:57.386Z,45.63
2019-04-01T06:16:28.026Z,43.10
2019-04-01T06:19:00.366Z,45.70
2019-04-01T06:21:32.767Z,46.37
2019-04-01T06:24:05.458Z,44.73
2019-04-01T06:26:59.201Z,44.08
2019-04-01T06:29:31.622Z,46.00
2019-04-01T06:32:04.723Z,40.85
2019-04-01T06:34:36.605Z,44.80
2019-04-01T06:37:09.682Z,39.75
2019-04-01T06:39:47.028Z,38.50
2019-04-01T06:42:20.976Z,40.28
2019-04-01T06:45:10.001Z,48.28
2019-04-01T06:47:46.912Z,40.40
2019-04-01T06:50:22.910Z,40.23
2019-04-01T06:52:58.850Z,39.53
2019-04-01T06:55:29.373Z,38.33
2019-04-01T06:58:12.051Z,38.02
2019-04-01T07:00:47.747Z,35.23
2019-04-01T07:03:21.004Z,37.63
2019-04-01T07:05:55.429Z,38.28
2019-04-01T07:08:27.435Z,38.00
2019-04-01T07:12:29.721Z,38.20
2019-04-01T07:15:01.845Z,43.48
2019-04-01T07:17:32.712Z,39.25
2019-04-01T07:20:09.189Z,38.15
2019-04-01T07:22:42.768Z,34.45
2019-04-01T07:25:14.109Z,38.17
2019-04-01T07:27:52.382Z,37.60
2019-04-01T07:30:29.913Z,41.58
2019-04-01T07:33:02.852Z,35.30
2019-04-01T07:35:46.481Z,41.55
2019-04-01T07:38:19.052Z,35.70
2019-04-01T07:40:59.206Z,38.85
2019-04-01T07:43:32.512Z,35.17
2019-04-01T07:48:38.905Z,39.50
2019-04-01T07:51:30.862Z,37.28
2019-04-01T07:54:07.806Z,37.08
2019-04-01T07:56:45.218Z,38.17
2019-04-01T07:59:21.419Z,34.75
2019-04-01T08:02:00.758Z,39.73
2019-04-01T08:04:39.915Z,39.33
2019-04-01T08:07:17.394Z,36.93
2019-04-01T08:09:58.951Z,37.23
2019-04-01T08:12:46.173Z,36.03
2019-04-01T08:15:37.457Z,36.75
2019-04-01T08:18:15.657Z,36.30
2019-04-01T08:21:03.662Z,36.65
2019-04-01T08:24:02.504Z,36.90
2019-04-01T08:26:34.145Z,35.05
2019-04-01T08:29:10.463Z,36.50
2019-04-01T08:31:46.271Z,34.67
2019-04-01T08:34:23.855Z,37.13
2019-04-01T08:37:04.915Z,38.08
2019-04-01T08:39:38.855Z,35.03
2019-04-01T08:42:11.444Z,35.85
2019-04-01T08:44:47.738Z,37.85
2019-04-01T08:47:22.656Z,36.35
2019-04-01T08:53:55.403Z,41.98
2019-04-01T08:56:39.425Z,38.65
2019-04-01T09:02:17.199Z,34.73
2019-04-01T09:04:40.175Z,36.70
2019-04-01T09:07:12.782Z,36.25
2019-04-01T09:09:43.478Z,35.78
2019-04-01T09:12:14.498Z,36.50
2019-04-01T09:15:03.644Z,34.58
2019-04-01T09:17:40.368Z,34.05
2019-04-01T09:20:11.302Z,34.95
2019-04-01T09:22:43.440Z,33.20
2019-04-01T09:25:19.020Z,34.90
2019-04-01T09:27:52.157Z,34.35
2019-04-01T09:30:23.395Z,35.68
2019-04-01T09:32:53.613Z,33.63
2019-04-01T09:35:27.520Z,33.88
2019-04-01T09:37:59.385Z,34.58
2019-04-01T09:40:32.328Z,40.25
2019-04-01T09:43:07.467Z,39.67
2019-04-01T09:45:40.528Z,33.90
2019-04-01T09:48:12.229Z,33.42
2019-04-01T09:50:47.080Z,33.90
2019-04-01T09:53:17.227Z,33.23
2019-04-01T09:55:55.808Z,33.80
2019-04-01T09:58:31.445Z,32.67
2019-04-01T10:01:04.551Z,39.45
2019-04-01T10:03:43.998Z,37.13
2019-04-01T10:06:21.723Z,33.85
2019-04-01T10:08:55.085Z,33.08
2019-04-01T10:11:32.531Z,37.98
2019-04-01T10:14:34.167Z,34.65
2019-04-01T10:17:19.210Z,34.00
2019-04-01T10:19:54.826Z,33.00
2019-04-01T10:22:40.084Z,33.60
2019-04-01T10:25:22.387Z,33.92
2019-04-01T10:27:59.950Z,33.73
2019-04-01T10:30:47.189Z,31.15
2019-04-01T10:33:46.380Z,34.03
2019-04-01T10:36:41.616Z,30.48
2019-04-01T10:39:30.573Z,31.60
2019-04-01T10:42:12.494Z,31.75
2019-04-01T10:45:02.054Z,36.28
2019-04-01T10:47:59.868Z,33.00
2019-04-01T10:51:01.655Z,31.87
2019-04-01T10:53:56.144Z,31.00
2019-04-01T10:56:36.058Z,31.35
2019-04-01T10:59:23.122Z,31.55
2019-04-01T11:01:58.793Z,30.23
2019-04-01T11:04:39.251Z,28.85
2019-04-01T11:07:37.538Z,27.95
2019-04-01T11:10:40.518Z,28.05
2019-04-01T11:13:31.273Z,31.35
2019-04-01T11:16:11.352Z,26.17
2019-04-01T11:19:25.783Z,28.55
2019-04-01T11:22:24.088Z,35.20
2019-04-01T11:25:35.395Z,32.75
2019-04-01T11:28:05.661Z,30.92
2019-04-01T11:30:57.244Z,30.40
2019-04-01T11:34:20.945Z,34.60
2019-04-01T11:37:31.861Z,28.83
2019-04-01T11:41:10.917Z,28.32
2019-04-01T11:48:30.312Z,31.68
2019-04-01T11:51:58.423Z,29.57
2019-04-01T12:01:15.567Z,27.15
2019-04-01T12:03:56.263Z,26.35
2019-04-01T12:06:53.069Z,26.97
2019-04-01T12:09:52.420Z,28.02
2019-04-01T12:13:07.531Z,30.65
2019-04-01T12:19:20.201Z,25.92
2019-04-01T12:21:58.265Z,28.60
2019-04-01T12:28:41.008Z,26.00
2019-04-01T12:31:31.868Z,26.52
2019-04-01T12:34:35.016Z,25.52
2019-04-01T12:37:13.893Z,25.52
2019-04-01T12:40:09.982Z,25.97
2019-04-01T12:42:50.491Z,25.23
2019-04-01T12:45:40.850Z,25.32
2019-04-01T12:48:35.971Z,23.65
2019-04-01T12:51:14.383Z,25.85
2019-04-01T12:53:53.094Z,26.07
2019-04-01T12:56:34.581Z,24.60
2019-04-01T13:02:31.077Z,23.87
2019-04-01T13:05:20.851Z,22.17
2019-04-01T13:08:02.042Z,23.22
2019-04-01T13:10:48.683Z,24.52
2019-04-01T13:13:27.081Z,22.25
2019-04-01T13:16:37.248Z,23.40
2019-04-01T13:19:37.068Z,22.10
2019-04-01T13:22:10.834Z,23.75
2019-04-01T13:24:54.363Z,22.67
2019-04-01T13:27:32.793Z,20.62
2019-04-01T13:30:08.349Z,24.30
2019-04-01T13:32:59.103Z,22.90
2019-04-01T13:39:04.126Z,24.30
2019-04-01T13:41:45.826Z,24.47
2019-04-01T13:44:35.689Z,21.00
2019-04-01T13:47:01.572Z,23.07
2019-04-01T13:49:39.729Z,22.27
2019-04-01T13:52:26.741Z,24.03
2019-04-01T13:55:09.830Z,22.57
2019-04-01T13:57:48.646Z,19.07
2019-04-01T14:00:23.239Z,21.37
2019-04-01T14:03:26.264Z,21.30
2019-04-01T14:06:06.033Z,22.17
2019-04-01T14:08:33.418Z,20.40
2019-04-01T14:14:48.694Z,24.60
2019-04-01T14:17:41.974Z,18.90
2019-04-01T14:20:28.008Z,21.40
2019-04-01T14:23:04.039Z,21.73
2019-04-01T14:25:55.989Z,18.80
2019-04-01T14:31:31.008Z,19.67
2019-04-01T14:34:06.437Z,20.47
2019-04-01T14:39:39.479Z,16.00
2019-04-01T14:42:12.717Z,16.33
2019-04-01T14:44:51.936Z,19.10
2019-04-01T14:47:23.866Z,17.47
2019-04-01T14:49:56.648Z,17.67
2019-04-01T14:52:32.742Z,18.20
2019-04-01T14:54:59.293Z,17.90
2019-04-01T14:57:29.439Z,19.07
2019-04-01T14:59:59.653Z,18.90
2019-04-01T15:02:31.336Z,17.30
2019-04-01T15:05:04.661Z,17.20
2019-04-01T15:07:34.344Z,18.03
2019-04-01T15:10:05.364Z,18.27
2019-04-01T15:12:36.594Z,15.17
2019-04-01T15:15:10.204Z,16.47
2019-04-01T15:17:42.909Z,16.53
2019-04-01T15:20:16.180Z,17.25
2019-04-01T15:22:48.219Z,16.67
2019-04-01T15:25:20.660Z,17.03
2019-04-01T15:27:52.814Z,19.73
2019-04-01T15:30:23.932Z,18.67
2019-04-01T15:32:54.245Z,17.97
2019-04-01T15:35:24.457Z,17.23
2019-04-01T15:37:55.505Z,17.87
2019-04-01T15:40:33.041Z,15.80
2019-04-01T15:43:03.781Z,17.60
2019-04-01T15:45:37.639Z,16.73
2019-04-01T15:48:08.032Z,17.63
2019-04-01T15:50:42.428Z,17.40
2019-04-01T15:53:12.983Z,17.27
2019-04-01T15:55:49.107Z,17.97
2019-04-01T16:05:42.108Z,21.20
2019-04-01T16:08:36.329Z,18.10
2019-04-01T16:15:54.132Z,20.60
2019-04-01T16:18:24.349Z,19.05
2019-04-01T16:20:59.282Z,18.98
2019-04-01T16:23:28.399Z,18.42
2019-04-01T16:26:03.238Z,18.77
2019-04-01T16:28:37.091Z,19.70
2019-04-01T16:31:07.739Z,20.02
2019-04-01T16:33:37.979Z,18.12
2019-04-01T16:36:10.329Z,21.35
2019-04-01T16:38:47.395Z,20.80
2019-04-01T16:41:19.861Z,20.25
2019-04-01T16:43:56.275Z,20.02
2019-04-01T16:46:29.849Z,22.63
2019-04-01T16:49:03.272Z,20.77
2019-04-01T16:51:41.529Z,22.23
2019-04-01T16:54:12.067Z,21.95
2019-04-01T16:56:42.837Z,19.87
2019-04-01T16:59:15.017Z,21.80
2019-04-01T17:01:47.940Z,23.47
2019-04-01T17:04:18.151Z,23.38
2019-04-01T17:06:49.513Z,23.32
2019-04-01T17:09:58.300Z,22.13
2019-04-01T17:12:31.547Z,20.97
2019-04-01T17:15:05.635Z,23.75
2019-04-01T17:24:56.336Z,24.50
2019-04-01T17:27:47.142Z,21.07
2019-04-01T17:30:24.745Z,22.45
2019-04-01T17:35:52.382Z,23.73
2019-04-01T17:38:27.921Z,21.95
2019-04-01T17:41:10.445Z,24.30
2019-04-01T17:43:45.683Z,23.73
2019-04-01T17:46:35.329Z,22.27
2019-04-01T17:49:10.145Z,22.77
2019-04-01T17:51:54.048Z,23.02
2019-04-01T17:54:29.172Z,22.62
2019-04-01T17:57:13.643Z,23.73
2019-04-01T17:59:47.331Z,22.90
2019-04-01T18:02:30.425Z,24.23
2019-04-01T18:05:04.877Z,22.40
2019-04-01T18:07:38.571Z,23.30
2019-04-01T18:10:09.778Z,21.65
2019-04-01T18:12:40.007Z,24.27
2019-04-01T18:15:10.372Z,21.62
2019-04-01T18:17:44.404Z,21.50
2019-04-01T18:20:19.853Z,22.35
2019-04-01T18:23:06.484Z,20.25
2019-04-01T18:25:38.463Z,21.40
2019-04-01T18:28:13.105Z,20.27
2019-04-01T18:30:43.877Z,20.25
2019-04-01T18:33:14.281Z,19.75
2019-04-01T18:35:54.260Z,19.77
2019-04-01T18:38:21.384Z,18.98
2019-04-01T18:40:52.198Z,18.75
2019-04-01T18:43:24.381Z,19.95
2019-04-01T18:45:58.547Z,18.98
2019-04-01T18:48:31.093Z,18.80
2019-04-01T18:51:06.877Z,20.55
2019-04-01T18:53:37.130Z,19.90
2019-04-01T18:56:12.109Z,19.57
2019-04-01T18:58:43.260Z,18.75
2019-04-01T19:01:17.029Z,20.80
2019-04-01T19:03:49.735Z,18.60
2019-04-01T19:06:22.994Z,18.27
2019-04-01T19:09:08.770Z,19.42
2019-04-01T19:11:30.100Z,21.90
2019-04-01T19:14:00.868Z,21.40
2019-04-01T19:16:40.659Z,20.45
2019-04-01T19:19:11.561Z,19.95
2019-04-01T19:21:45.316Z,20.05
2019-04-01T19:24:24.413Z,18.05
2019-04-01T19:26:57.797Z,18.27
2019-04-01T19:29:35.428Z,17.65
2019-04-01T19:32:10.487Z,18.90
2019-04-01T19:34:40.623Z,18.00
2019-04-01T19:37:12.571Z,17.92
2019-04-01T19:39:45.730Z,19.35
2019-04-01T19:42:29.099Z,17.45
2019-04-01T19:45:02.268Z,19.30
2019-04-01T19:47:36.981Z,20.48
2019-04-01T19:50:18.494Z,19.48
2019-04-01T19:52:49.791Z,18.32
2019-04-01T19:55:27.808Z,19.60
2019-04-01T19:57:58.866Z,18.42
2019-04-01T20:00:31.260Z,20.95
2019-04-01T20:03:02.126Z,18.10
2019-04-01T20:05:34.768Z,18.17
2019-04-01T20:08:07.446Z,17.50
2019-04-01T20:10:41.292Z,18.05
2019-04-01T20:13:13.143Z,19.62
2019-04-01T20:16:10.091Z,19.20
2019-04-01T20:18:41.507Z,20.08
2019-04-01T20:21:15.415Z,21.85
2019-04-01T20:23:48.703Z,19.48
2019-04-01T20:26:22.224Z,22.48
2019-04-01T20:28:53.603Z,20.48
2019-04-01T20:31:38.227Z,20.65
2019-04-01T20:34:19.696Z,19.87
2019-04-01T20:36:52.439Z,19.05
2019-04-01T20:39:25.280Z,20.40
2019-04-01T20:41:56.611Z,19.45
2019-04-01T20:44:32.793Z,21.45
2019-04-01T20:47:01.033Z,22.48
2019-04-01T20:49:31.199Z,21.33
2019-04-01T20:52:09.281Z,20.50
2019-04-01T20:54:45.188Z,21.73
2019-04-01T20:57:17.309Z,21.62
2019-04-01T20:59:50.617Z,21.05
2019-04-01T21:02:24.510Z,19.05
2019-04-01T21:04:57.371Z,20.80
2019-04-01T21:07:28.132Z,21.12
2019-04-01T21:09:59.874Z,21.80
2019-04-01T21:12:30.442Z,21.75
2019-04-01T21:15:05.421Z,21.93
2019-04-01T21:17:44.861Z,23.22
2019-04-01T21:20:20.154Z,21.87
2019-04-01T21:22:51.299Z,23.87
2019-04-01T21:25:25.493Z,24.47
2019-04-01T21:27:58.717Z,24.55
2019-04-01T21:30:31.041Z,25.48
2019-04-01T21:33:05.869Z,26.97
2019-04-01T21:35:38.556Z,26.68
2019-04-01T21:38:11.894Z,25.05
2019-04-01T21:40:45.813Z,24.75
2019-04-01T21:43:20.260Z,24.43
2019-04-01T21:45:51.784Z,25.72
2019-04-01T21:48:28.196Z,22.65
2019-04-01T21:51:05.484Z,23.20
2019-04-01T21:53:39.213Z,25.15
2019-04-01T21:56:11.036Z,24.40
2019-04-01T21:58:45.487Z,25.12
2019-04-01T22:01:17.808Z,25.90
2019-04-01T22:03:49.496Z,24.75
2019-04-01T22:06:22.110Z,27.48
2019-04-01T22:08:54.218Z,27.25
2019-04-01T22:11:26.777Z,22.67
2019-04-01T22:13:59.342Z,24.18
2019-04-01T22:16:31.961Z,22.15
2019-04-01T22:19:04.058Z,23.57
2019-04-01T22:21:35.401Z,23.40
2019-04-01T22:24:12.672Z,23.45
2019-04-01T22:26:47.503Z,24.80
2019-04-01T22:29:21.874Z,23.90
2019-04-01T22:31:53.460Z,25.62
2019-04-01T22:34:31.004Z,25.50
2019-04-01T22:37:03.707Z,27.42
2019-04-01T22:39:38.908Z,28.10
2019-04-01T22:42:12.479Z,27.67
2019-04-01T22:44:48.227Z,25.00
2019-04-01T22:47:26.077Z,25.60
2019-04-01T22:50:02.616Z,24.82
2019-04-01T22:52:48.204Z,26.20
2019-04-01T22:55:42.409Z,24.85
2019-04-01T22:58:18.641Z,27.55
2019-04-01T23:01:03.030Z,28.38
2019-04-01T23:03:37.768Z,30.12
2019-04-01T23:09:09.884Z,23.22
2019-04-01T23:11:57.458Z,25.90
2019-04-01T23:14:29.715Z,31.85
2019-04-01T23:17:08.057Z,28.15
2019-04-01T23:19:40.465Z,31.75
2019-04-01T23:22:13.623Z,29.30
2019-04-01T23:24:47.163Z,28.20
2019-04-01T23:27:17.670Z,26.55
2019-04-01T23:29:53.565Z,29.27
2019-04-01T23:32:45.807Z,31.55
2019-04-01T23:35:24.274Z,31.65
2019-04-01T23:38:04.620Z,27.98
2019-04-01T23:40:35.642Z,27.15
2019-04-01T23:43:11.405Z,27.27
2019-04-01T23:45:46.909Z,26.25
2019-04-01T23:48:26.058Z,28.35
2019-04-01T23:50:58.077Z,26.73
2019-04-01T23:53:50.883Z,28.25
2019-04-01T23:56:27.122Z,27.25
2019-04-01T23:59:00.645Z,31.05
